Connexion S'enregistrer

Connexion à votre compte

Identifiant
Mot de passe
Maintenir la connexion active sur ce site

Créer un compte

Pour valider ce formulaire, vous devez remplir tous les champs.
Nom
Identifiant
Mot de passe
Répétez le mot de passe
Adresse e-mail
Répétez l'adresse e-mail

Nous contacter

 Téléphone : +33 (0)4 79 54 41 81

Coordonnées détaillées et accès : cliquez ici

 
LFLB °C
    Ferienhaus Ostsee
[source: ADDS]
METAR
LFLB 210830Z AUTO 02010KT CAVOK 02/M03 Q1040 NOSIG =
TAF LFLB 210500Z 2106/2206 36012KT CAVOK
TAF
TAF LFLB 210500Z 2106/2206 36012KT CAVOK =
SR / SS: 07:09 / 16:26 UTC (Lever/Coucher du soleil le 2020-01-21)
JSN Boot template designed by JoomlaShine.com